sensor_id;sensor_type;location;lat;lon;timestamp;temperature;humidity
71297;SHT31;59082;50.658;4.608;2022-09-13T00:01:40;16.62;91.31
71297;SHT31;59082;50.658;4.608;2022-09-13T00:04:05;16.60;91.28
71297;SHT31;59082;50.658;4.608;2022-09-13T00:06:32;16.60;91.23
71297;SHT31;59082;50.658;4.608;2022-09-13T00:08:57;16.62;91.29
71297;SHT31;59082;50.658;4.608;2022-09-13T00:11:27;16.59;91.47
71297;SHT31;59082;50.658;4.608;2022-09-13T00:13:54;16.60;91.43
71297;SHT31;59082;50.658;4.608;2022-09-13T00:16:22;16.65;91.39
71297;SHT31;59082;50.658;4.608;2022-09-13T00:18:48;16.70;91.27
71297;SHT31;59082;50.658;4.608;2022-09-13T00:21:16;16.70;91.34
71297;SHT31;59082;50.658;4.608;2022-09-13T00:23:50;16.70;91.33
71297;SHT31;59082;50.658;4.608;2022-09-13T00:26:21;16.79;91.13
71297;SHT31;59082;50.658;4.608;2022-09-13T00:28:49;16.81;91.05
71297;SHT31;59082;50.658;4.608;2022-09-13T00:31:16;16.84;90.95
71297;SHT31;59082;50.658;4.608;2022-09-13T00:33:41;16.88;90.87
71297;SHT31;59082;50.658;4.608;2022-09-13T00:36:10;16.93;90.85
71297;SHT31;59082;50.658;4.608;2022-09-13T00:38:37;16.99;90.85
71297;SHT31;59082;50.658;4.608;2022-09-13T00:41:05;17.00;90.85
71297;SHT31;59082;50.658;4.608;2022-09-13T00:46:43;17.08;90.47
71297;SHT31;59082;50.658;4.608;2022-09-13T00:51:44;17.13;90.38
71297;SHT31;59082;50.658;4.608;2022-09-13T00:54:12;17.18;90.38
71297;SHT31;59082;50.658;4.608;2022-09-13T00:56:43;17.17;90.68
71297;SHT31;59082;50.658;4.608;2022-09-13T00:59:22;17.21;90.69
71297;SHT31;59082;50.658;4.608;2022-09-13T01:01:53;17.21;90.66
71297;SHT31;59082;50.658;4.608;2022-09-13T01:04:20;17.28;90.49
71297;SHT31;59082;50.658;4.608;2022-09-13T01:06:48;17.28;90.65
71297;SHT31;59082;50.658;4.608;2022-09-13T01:09:15;17.28;90.54
71297;SHT31;59082;50.658;4.608;2022-09-13T01:11:48;17.34;90.20
71297;SHT31;59082;50.658;4.608;2022-09-13T01:14:18;17.36;90.13
71297;SHT31;59082;50.658;4.608;2022-09-13T01:16:44;17.39;90.13
71297;SHT31;59082;50.658;4.608;2022-09-13T01:19:10;17.42;90.29
71297;SHT31;59082;50.658;4.608;2022-09-13T01:30:20;17.55;90.37
71297;SHT31;59082;50.658;4.608;2022-09-13T01:35:54;17.58;90.36
71297;SHT31;59082;50.658;4.608;2022-09-13T01:41:46;17.61;89.82
71297;SHT31;59082;50.658;4.608;2022-09-13T01:57:19;17.73;90.22
71297;SHT31;59082;50.658;4.608;2022-09-13T02:02:29;17.75;90.02
71297;SHT31;59082;50.658;4.608;2022-09-13T02:05:03;17.76;90.88
71297;SHT31;59082;50.658;4.608;2022-09-13T02:07:34;17.78;90.34
71297;SHT31;59082;50.658;4.608;2022-09-13T02:10:08;17.76;90.31
71297;SHT31;59082;50.658;4.608;2022-09-13T02:12:36;17.80;90.77
71297;SHT31;59082;50.658;4.608;2022-09-13T02:15:19;17.75;90.45
71297;SHT31;59082;50.658;4.608;2022-09-13T02:17:49;17.78;90.19
71297;SHT31;59082;50.658;4.608;2022-09-13T02:20:23;17.78;90.48
71297;SHT31;59082;50.658;4.608;2022-09-13T02:22:56;17.78;90.97
71297;SHT31;59082;50.658;4.608;2022-09-13T02:25:24;17.76;90.59
71297;SHT31;59082;50.658;4.608;2022-09-13T02:27:53;17.78;90.17
71297;SHT31;59082;50.658;4.608;2022-09-13T02:30:23;17.72;90.59
71297;SHT31;59082;50.658;4.608;2022-09-13T02:32:56;17.68;91.08
71297;SHT31;59082;50.658;4.608;2022-09-13T02:35:33;17.65;91.36
71297;SHT31;59082;50.658;4.608;2022-09-13T02:38:04;17.63;90.67
71297;SHT31;59082;50.658;4.608;2022-09-13T02:40:36;17.62;91.09
71297;SHT31;59082;50.658;4.608;2022-09-13T02:43:07;17.53;91.16
71297;SHT31;59082;50.658;4.608;2022-09-13T02:45:50;17.53;91.20
71297;SHT31;59082;50.658;4.608;2022-09-13T02:51:04;17.53;91.44
71297;SHT31;59082;50.658;4.608;2022-09-13T02:54:00;17.52;92.00
71297;SHT31;59082;50.658;4.608;2022-09-13T02:56:44;17.55;91.19
71297;SHT31;59082;50.658;4.608;2022-09-13T02:59:16;17.59;91.36
71297;SHT31;59082;50.658;4.608;2022-09-13T03:01:47;17.59;91.51
71297;SHT31;59082;50.658;4.608;2022-09-13T03:04:13;17.59;91.07
71297;SHT31;59082;50.658;4.608;2022-09-13T03:06:39;17.61;91.34
71297;SHT31;59082;50.658;4.608;2022-09-13T03:09:06;17.62;91.22
71297;SHT31;59082;50.658;4.608;2022-09-13T03:28:50;17.46;91.60
71297;SHT31;59082;50.658;4.608;2022-09-13T03:36:46;17.46;91.68
71297;SHT31;59082;50.658;4.608;2022-09-13T03:42:03;17.44;91.09
71297;SHT31;59082;50.658;4.608;2022-09-13T03:44:32;17.48;91.45
71297;SHT31;59082;50.658;4.608;2022-09-13T03:47:01;17.48;91.71
71297;SHT31;59082;50.658;4.608;2022-09-13T03:49:28;17.52;91.70
71297;SHT31;59082;50.658;4.608;2022-09-13T03:51:55;17.52;91.23
71297;SHT31;59082;50.658;4.608;2022-09-13T03:54:28;17.49;91.21
71297;SHT31;59082;50.658;4.608;2022-09-13T03:57:16;17.52;91.29
71297;SHT31;59082;50.658;4.608;2022-09-13T03:59:48;17.51;91.06
71297;SHT31;59082;50.658;4.608;2022-09-13T04:02:15;17.52;90.60
71297;SHT31;59082;50.658;4.608;2022-09-13T04:04:42;17.53;90.67
71297;SHT31;59082;50.658;4.608;2022-09-13T04:07:09;17.53;90.55
71297;SHT31;59082;50.658;4.608;2022-09-13T04:09:35;17.58;90.87
71297;SHT31;59082;50.658;4.608;2022-09-13T04:12:01;17.59;91.00
71297;SHT31;59082;50.658;4.608;2022-09-13T04:14:27;17.58;90.53
71297;SHT31;59082;50.658;4.608;2022-09-13T04:16:56;17.62;90.34
71297;SHT31;59082;50.658;4.608;2022-09-13T04:19:23;17.62;91.15
71297;SHT31;59082;50.658;4.608;2022-09-13T04:21:53;17.62;91.47
71297;SHT31;59082;50.658;4.608;2022-09-13T04:24:19;17.62;91.83
71297;SHT31;59082;50.658;4.608;2022-09-13T04:26:49;17.63;91.14
71297;SHT31;59082;50.658;4.608;2022-09-13T04:29:22;17.66;90.78
71297;SHT31;59082;50.658;4.608;2022-09-13T04:31:50;17.69;90.94
71297;SHT31;59082;50.658;4.608;2022-09-13T04:34:16;17.71;90.47
71297;SHT31;59082;50.658;4.608;2022-09-13T04:36:43;17.63;90.47
71297;SHT31;59082;50.658;4.608;2022-09-13T04:39:10;17.68;90.76
71297;SHT31;59082;50.658;4.608;2022-09-13T04:41:39;17.66;91.33
71297;SHT31;59082;50.658;4.608;2022-09-13T04:44:05;17.68;90.79
71297;SHT31;59082;50.658;4.608;2022-09-13T04:46:30;17.63;90.64
71297;SHT31;59082;50.658;4.608;2022-09-13T04:48:56;17.65;91.29
71297;SHT31;59082;50.658;4.608;2022-09-13T04:51:21;17.68;91.11
71297;SHT31;59082;50.658;4.608;2022-09-13T04:53:54;17.68;91.72
71297;SHT31;59082;50.658;4.608;2022-09-13T04:56:21;17.71;91.58
71297;SHT31;59082;50.658;4.608;2022-09-13T04:58:49;17.73;92.15
71297;SHT31;59082;50.658;4.608;2022-09-13T05:01:15;17.68;92.08
71297;SHT31;59082;50.658;4.608;2022-09-13T05:03:41;17.69;92.18
71297;SHT31;59082;50.658;4.608;2022-09-13T05:06:11;17.71;92.05
71297;SHT31;59082;50.658;4.608;2022-09-13T05:08:37;17.68;92.71
71297;SHT31;59082;50.658;4.608;2022-09-13T05:11:04;17.68;92.60
71297;SHT31;59082;50.658;4.608;2022-09-13T05:13:31;17.72;92.78
71297;SHT31;59082;50.658;4.608;2022-09-13T05:16:00;17.71;92.60
71297;SHT31;59082;50.658;4.608;2022-09-13T05:18:27;17.69;93.13
71297;SHT31;59082;50.658;4.608;2022-09-13T05:20:57;17.62;93.75
71297;SHT31;59082;50.658;4.608;2022-09-13T05:23:27;17.59;93.70
71297;SHT31;59082;50.658;4.608;2022-09-13T05:26:03;17.56;94.85
71297;SHT31;59082;50.658;4.608;2022-09-13T05:28:31;17.56;94.77
71297;SHT31;59082;50.658;4.608;2022-09-13T05:33:24;17.49;96.27
71297;SHT31;59082;50.658;4.608;2022-09-13T05:35:50;17.46;96.30
71297;SHT31;59082;50.658;4.608;2022-09-13T05:38:16;17.44;96.22
71297;SHT31;59082;50.658;4.608;2022-09-13T05:40:41;17.36;96.65
71297;SHT31;59082;50.658;4.608;2022-09-13T05:43:07;17.39;97.77
71297;SHT31;59082;50.658;4.608;2022-09-13T05:45:33;17.36;98.12
71297;SHT31;59082;50.658;4.608;2022-09-13T05:47:58;17.35;98.46
71297;SHT31;59082;50.658;4.608;2022-09-13T05:50:24;17.36;99.45
71297;SHT31;59082;50.658;4.608;2022-09-13T05:52:53;17.39;99.69
71297;SHT31;59082;50.658;4.608;2022-09-13T05:55:19;17.36;98.89
71297;SHT31;59082;50.658;4.608;2022-09-13T05:57:45;17.32;98.66
71297;SHT31;59082;50.658;4.608;2022-09-13T06:00:12;17.24;98.09
71297;SHT31;59082;50.658;4.608;2022-09-13T06:02:37;17.25;98.98
71297;SHT31;59082;50.658;4.608;2022-09-13T06:05:03;17.28;98.92
71297;SHT31;59082;50.658;4.608;2022-09-13T06:07:29;17.27;98.99
71297;SHT31;59082;50.658;4.608;2022-09-13T06:09:54;17.27;99.55
71297;SHT31;59082;50.658;4.608;2022-09-13T06:12:20;17.25;99.99
71297;SHT31;59082;50.658;4.608;2022-09-13T06:14:45;17.25;98.98
71297;SHT31;59082;50.658;4.608;2022-09-13T06:17:11;17.23;98.78
71297;SHT31;59082;50.658;4.608;2022-09-13T06:19:36;17.20;98.83
71297;SHT31;59082;50.658;4.608;2022-09-13T06:22:02;17.17;98.31
71297;SHT31;59082;50.658;4.608;2022-09-13T06:24:27;17.20;98.59
71297;SHT31;59082;50.658;4.608;2022-09-13T06:26:53;17.20;98.53
71297;SHT31;59082;50.658;4.608;2022-09-13T06:29:18;17.23;99.13
71297;SHT31;59082;50.658;4.608;2022-09-13T06:31:44;17.31;99.05
71297;SHT31;59082;50.658;4.608;2022-09-13T06:34:11;17.38;99.99
71297;SHT31;59082;50.658;4.608;2022-09-13T06:36:41;17.39;97.84
71297;SHT31;59082;50.658;4.608;2022-09-13T06:39:06;17.46;97.92
71297;SHT31;59082;50.658;4.608;2022-09-13T06:41:33;17.46;98.33
71297;SHT31;59082;50.658;4.608;2022-09-13T06:43:59;17.59;98.99
71297;SHT31;59082;50.658;4.608;2022-09-13T06:46:30;17.68;99.24
71297;SHT31;59082;50.658;4.608;2022-09-13T06:49:00;17.75;98.82
71297;SHT31;59082;50.658;4.608;2022-09-13T06:51:27;17.82;99.39
71297;SHT31;59082;50.658;4.608;2022-09-13T06:53:55;17.78;98.62
71297;SHT31;59082;50.658;4.608;2022-09-13T06:56:28;17.78;98.77
71297;SHT31;59082;50.658;4.608;2022-09-13T06:58:57;17.79;98.48
71297;SHT31;59082;50.658;4.608;2022-09-13T07:03:52;17.90;97.77
71297;SHT31;59082;50.658;4.608;2022-09-13T07:08:45;18.03;97.68
71297;SHT31;59082;50.658;4.608;2022-09-13T07:11:12;18.10;97.66
71297;SHT31;59082;50.658;4.608;2022-09-13T07:13:38;18.18;97.35
71297;SHT31;59082;50.658;4.608;2022-09-13T07:16:10;18.24;96.87
71297;SHT31;59082;50.658;4.608;2022-09-13T07:18:36;18.28;96.41
71297;SHT31;59082;50.658;4.608;2022-09-13T07:21:05;18.28;96.56
71297;SHT31;59082;50.658;4.608;2022-09-13T07:23:31;18.30;97.16
71297;SHT31;59082;50.658;4.608;2022-09-13T07:25:58;18.34;96.42
71297;SHT31;59082;50.658;4.608;2022-09-13T07:28:28;18.44;95.49
71297;SHT31;59082;50.658;4.608;2022-09-13T07:30:54;18.65;95.68
71297;SHT31;59082;50.658;4.608;2022-09-13T07:33:19;18.86;95.51
71297;SHT31;59082;50.658;4.608;2022-09-13T07:35:45;18.96;95.26
71297;SHT31;59082;50.658;4.608;2022-09-13T07:38:10;19.10;94.88
71297;SHT31;59082;50.658;4.608;2022-09-13T07:40:36;19.22;94.27
71297;SHT31;59082;50.658;4.608;2022-09-13T07:43:02;19.40;94.22
71297;SHT31;59082;50.658;4.608;2022-09-13T07:45:27;19.61;92.91
71297;SHT31;59082;50.658;4.608;2022-09-13T07:47:54;19.79;92.50
71297;SHT31;59082;50.658;4.608;2022-09-13T07:50:20;20.05;92.25
71297;SHT31;59082;50.658;4.608;2022-09-13T07:52:45;20.22;92.53
71297;SHT31;59082;50.658;4.608;2022-09-13T07:55:11;20.44;91.83
71297;SHT31;59082;50.658;4.608;2022-09-13T07:57:36;20.68;90.77
71297;SHT31;59082;50.658;4.608;2022-09-13T08:00:02;20.80;90.88
71297;SHT31;59082;50.658;4.608;2022-09-13T08:02:28;21.04;90.40
71297;SHT31;59082;50.658;4.608;2022-09-13T08:04:53;21.30;90.35
71297;SHT31;59082;50.658;4.608;2022-09-13T08:07:19;21.70;89.58
71297;SHT31;59082;50.658;4.608;2022-09-13T08:09:44;21.90;89.35
71297;SHT31;59082;50.658;4.608;2022-09-13T08:12:10;22.24;87.53
71297;SHT31;59082;50.658;4.608;2022-09-13T08:14:35;23.06;86.14
71297;SHT31;59082;50.658;4.608;2022-09-13T08:17:01;23.24;84.41
71297;SHT31;59082;50.658;4.608;2022-09-13T08:19:26;23.55;85.00
71297;SHT31;59082;50.658;4.608;2022-09-13T08:21:52;23.49;83.85
71297;SHT31;59082;50.658;4.608;2022-09-13T08:24:20;23.45;84.80
71297;SHT31;59082;50.658;4.608;2022-09-13T08:26:46;23.66;84.11
71297;SHT31;59082;50.658;4.608;2022-09-13T08:29:12;23.76;83.45
71297;SHT31;59082;50.658;4.608;2022-09-13T08:31:38;23.69;83.60
71297;SHT31;59082;50.658;4.608;2022-09-13T08:34:03;23.59;83.85
71297;SHT31;59082;50.658;4.608;2022-09-13T08:36:29;23.49;83.85
71297;SHT31;59082;50.658;4.608;2022-09-13T08:38:57;23.21;85.00
71297;SHT31;59082;50.658;4.608;2022-09-13T08:44:28;22.76;85.08
71297;SHT31;59082;50.658;4.608;2022-09-13T08:49:43;22.72;85.23
71297;SHT31;59082;50.658;4.608;2022-09-13T08:52:32;22.08;85.07
71297;SHT31;59082;50.658;4.608;2022-09-13T08:55:01;22.01;85.00
71297;SHT31;59082;50.658;4.608;2022-09-13T08:57:46;21.83;85.59
71297;SHT31;59082;50.658;4.608;2022-09-13T09:00:29;22.01;86.23
71297;SHT31;59082;50.658;4.608;2022-09-13T09:05:47;22.90;85.52
71297;SHT31;59082;50.658;4.608;2022-09-13T09:10:58;23.28;82.54
71297;SHT31;59082;50.658;4.608;2022-09-13T09:13:33;23.42;80.69
71297;SHT31;59082;50.658;4.608;2022-09-13T09:16:32;23.54;81.67
71297;SHT31;59082;50.658;4.608;2022-09-13T09:19:07;23.62;80.78
71297;SHT31;59082;50.658;4.608;2022-09-13T09:21:34;23.56;80.65
71297;SHT31;59082;50.658;4.608;2022-09-13T09:24:01;23.35;82.13
71297;SHT31;59082;50.658;4.608;2022-09-13T09:26:29;23.30;82.51
71297;SHT31;59082;50.658;4.608;2022-09-13T09:29:00;23.18;82.21
71297;SHT31;59082;50.658;4.608;2022-09-13T09:37:10;23.32;81.70
71297;SHT31;59082;50.658;4.608;2022-09-13T09:39:38;23.41;82.41
71297;SHT31;59082;50.658;4.608;2022-09-13T09:42:19;23.49;80.20
71297;SHT31;59082;50.658;4.608;2022-09-13T09:44:50;23.51;79.77
71297;SHT31;59082;50.658;4.608;2022-09-13T09:47:19;23.87;79.45
71297;SHT31;59082;50.658;4.608;2022-09-13T09:49:53;24.27;77.76
71297;SHT31;59082;50.658;4.608;2022-09-13T09:58:05;25.70;74.44
71297;SHT31;59082;50.658;4.608;2022-09-13T10:00:35;26.06;72.94
71297;SHT31;59082;50.658;4.608;2022-09-13T10:03:16;25.91;73.57
71297;SHT31;59082;50.658;4.608;2022-09-13T10:05:42;25.74;75.86
71297;SHT31;59082;50.658;4.608;2022-09-13T10:08:24;25.41;75.31
71297;SHT31;59082;50.658;4.608;2022-09-13T10:10:55;25.24;74.38
71297;SHT31;59082;50.658;4.608;2022-09-13T10:13:22;25.38;74.60
71297;SHT31;59082;50.658;4.608;2022-09-13T10:15:54;25.38;74.78
71297;SHT31;59082;50.658;4.608;2022-09-13T10:18:21;25.71;74.22
71297;SHT31;59082;50.658;4.608;2022-09-13T10:21:05;25.80;73.96
71297;SHT31;59082;50.658;4.608;2022-09-13T10:23:32;26.19;75.56
71297;SHT31;59082;50.658;4.608;2022-09-13T10:26:10;26.16;72.82
71297;SHT31;59082;50.658;4.608;2022-09-13T10:31:13;26.11;73.85
71297;SHT31;59082;50.658;4.608;2022-09-13T10:33:42;26.03;72.43
71297;SHT31;59082;50.658;4.608;2022-09-13T10:36:21;25.77;71.89
71297;SHT31;59082;50.658;4.608;2022-09-13T10:41:23;25.56;73.81
71297;SHT31;59082;50.658;4.608;2022-09-13T10:44:02;25.40;73.87
71297;SHT31;59082;50.658;4.608;2022-09-13T10:46:31;25.08;75.96
71297;SHT31;59082;50.658;4.608;2022-09-13T10:48:59;24.93;76.19
71297;SHT31;59082;50.658;4.608;2022-09-13T10:54:07;24.31;76.83
71297;SHT31;59082;50.658;4.608;2022-09-13T10:56:32;24.21;78.06
71297;SHT31;59082;50.658;4.608;2022-09-13T11:04:46;23.92;79.94
71297;SHT31;59082;50.658;4.608;2022-09-13T11:24:31;24.67;78.11
71297;SHT31;59082;50.658;4.608;2022-09-13T11:33:24;24.30;78.64
71297;SHT31;59082;50.658;4.608;2022-09-13T11:35:50;24.41;79.75
71297;SHT31;59082;50.658;4.608;2022-09-13T11:38:24;24.35;78.84
71297;SHT31;59082;50.658;4.608;2022-09-13T11:46:57;24.07;79.76
71297;SHT31;59082;50.658;4.608;2022-09-13T11:55:22;24.00;79.72
71297;SHT31;59082;50.658;4.608;2022-09-13T11:57:59;23.95;79.20
71297;SHT31;59082;50.658;4.608;2022-09-13T12:00:40;24.07;79.86
71297;SHT31;59082;50.658;4.608;2022-09-13T12:06:00;23.87;80.27
71297;SHT31;59082;50.658;4.608;2022-09-13T12:08:43;23.86;80.45
71297;SHT31;59082;50.658;4.608;2022-09-13T12:13:42;23.63;82.85
71297;SHT31;59082;50.658;4.608;2022-09-13T12:16:13;23.56;82.96
71297;SHT31;59082;50.658;4.608;2022-09-13T12:18:45;23.55;83.01
71297;SHT31;59082;50.658;4.608;2022-09-13T12:21:18;23.59;83.01
71297;SHT31;59082;50.658;4.608;2022-09-13T12:24:02;23.65;84.11
71297;SHT31;59082;50.658;4.608;2022-09-13T12:26:44;23.56;84.70
71297;SHT31;59082;50.658;4.608;2022-09-13T12:29:17;23.70;84.40
71297;SHT31;59082;50.658;4.608;2022-09-13T12:31:43;23.93;84.20
71297;SHT31;59082;50.658;4.608;2022-09-13T12:34:25;24.24;83.05
71297;SHT31;59082;50.658;4.608;2022-09-13T12:50:54;23.96;81.77
71297;SHT31;59082;50.658;4.608;2022-09-13T12:59:19;23.77;82.70
71297;SHT31;59082;50.658;4.608;2022-09-13T13:01:49;23.73;82.69
71297;SHT31;59082;50.658;4.608;2022-09-13T13:04:20;23.72;82.73
71297;SHT31;59082;50.658;4.608;2022-09-13T13:09:21;23.62;82.90
71297;SHT31;59082;50.658;4.608;2022-09-13T13:11:48;23.55;82.74
71297;SHT31;59082;50.658;4.608;2022-09-13T13:31:31;23.42;84.53
71297;SHT31;59082;50.658;4.608;2022-09-13T13:34:00;23.37;84.17
71297;SHT31;59082;50.658;4.608;2022-09-13T13:36:28;23.35;85.96
71297;SHT31;59082;50.658;4.608;2022-09-13T13:38:56;23.34;85.45
71297;SHT31;59082;50.658;4.608;2022-09-13T13:41:38;23.27;85.49
71297;SHT31;59082;50.658;4.608;2022-09-13T13:46:46;23.08;87.42
71297;SHT31;59082;50.658;4.608;2022-09-13T13:57:37;22.86;90.06
71297;SHT31;59082;50.658;4.608;2022-09-13T14:00:25;22.74;90.26
71297;SHT31;59082;50.658;4.608;2022-09-13T14:19:52;21.80;93.21
71297;SHT31;59082;50.658;4.608;2022-09-13T14:22:23;21.84;93.85
71297;SHT31;59082;50.658;4.608;2022-09-13T14:24:54;21.81;96.18
71297;SHT31;59082;50.658;4.608;2022-09-13T14:27:29;21.84;96.28
71297;SHT31;59082;50.658;4.608;2022-09-13T14:29:59;21.83;96.42
71297;SHT31;59082;50.658;4.608;2022-09-13T14:32:27;21.81;95.96
71297;SHT31;59082;50.658;4.608;2022-09-13T14:37:30;21.74;95.50
71297;SHT31;59082;50.658;4.608;2022-09-13T14:39:58;21.71;94.22
71297;SHT31;59082;50.658;4.608;2022-09-13T14:42:24;21.78;94.78
71297;SHT31;59082;50.658;4.608;2022-09-13T14:44:50;21.94;93.61
71297;SHT31;59082;50.658;4.608;2022-09-13T14:47:37;21.91;94.34
71297;SHT31;59082;50.658;4.608;2022-09-13T14:50:12;22.04;95.24
71297;SHT31;59082;50.658;4.608;2022-09-13T14:53:00;22.08;94.81
71297;SHT31;59082;50.658;4.608;2022-09-13T14:55:30;22.17;94.01
71297;SHT31;59082;50.658;4.608;2022-09-13T14:58:01;22.05;94.46
71297;SHT31;59082;50.658;4.608;2022-09-13T15:00:34;22.01;94.10
71297;SHT31;59082;50.658;4.608;2022-09-13T15:03:10;22.05;94.13
71297;SHT31;59082;50.658;4.608;2022-09-13T15:05:38;22.02;93.99
71297;SHT31;59082;50.658;4.608;2022-09-13T15:08:26;21.94;94.76
71297;SHT31;59082;50.658;4.608;2022-09-13T15:11:03;22.01;95.28
71297;SHT31;59082;50.658;4.608;2022-09-13T15:13:36;22.09;94.41
71297;SHT31;59082;50.658;4.608;2022-09-13T15:16:28;22.25;94.01
71297;SHT31;59082;50.658;4.608;2022-09-13T15:19:35;22.31;93.69
71297;SHT31;59082;50.658;4.608;2022-09-13T15:22:11;22.28;93.72
71297;SHT31;59082;50.658;4.608;2022-09-13T15:24:42;22.22;94.06
71297;SHT31;59082;50.658;4.608;2022-09-13T15:27:30;22.22;93.91
71297;SHT31;59082;50.658;4.608;2022-09-13T15:30:01;22.19;94.50
71297;SHT31;59082;50.658;4.608;2022-09-13T15:32:34;22.22;94.13
71297;SHT31;59082;50.658;4.608;2022-09-13T15:35:25;22.19;94.37
71297;SHT31;59082;50.658;4.608;2022-09-13T15:38:29;22.17;94.12
71297;SHT31;59082;50.658;4.608;2022-09-13T15:41:17;22.08;95.46
71297;SHT31;59082;50.658;4.608;2022-09-13T15:43:43;22.11;94.75
71297;SHT31;59082;50.658;4.608;2022-09-13T15:46:14;22.07;95.37
71297;SHT31;59082;50.658;4.608;2022-09-13T15:48:44;22.05;95.01
71297;SHT31;59082;50.658;4.608;2022-09-13T15:51:14;21.97;94.60
71297;SHT31;59082;50.658;4.608;2022-09-13T15:53:42;21.93;95.47
71297;SHT31;59082;50.658;4.608;2022-09-13T15:56:12;21.86;95.79
71297;SHT31;59082;50.658;4.608;2022-09-13T15:58:38;21.76;96.17
71297;SHT31;59082;50.658;4.608;2022-09-13T16:01:04;21.56;95.65
71297;SHT31;59082;50.658;4.608;2022-09-13T16:03:30;21.46;96.55
71297;SHT31;59082;50.658;4.608;2022-09-13T16:05:56;21.40;95.96
71297;SHT31;59082;50.658;4.608;2022-09-13T16:08:22;21.30;96.29
71297;SHT31;59082;50.658;4.608;2022-09-13T16:10:48;21.18;95.97
71297;SHT31;59082;50.658;4.608;2022-09-13T16:13:14;21.12;96.64
71297;SHT31;59082;50.658;4.608;2022-09-13T16:15:39;21.02;98.08
71297;SHT31;59082;50.658;4.608;2022-09-13T16:18:05;20.92;98.35
71297;SHT31;59082;50.658;4.608;2022-09-13T16:20:31;20.87;99.00
71297;SHT31;59082;50.658;4.608;2022-09-13T16:22:56;20.80;99.98
71297;SHT31;59082;50.658;4.608;2022-09-13T16:25:22;20.71;99.99
71297;SHT31;59082;50.658;4.608;2022-09-13T16:27:48;20.68;99.99
71297;SHT31;59082;50.658;4.608;2022-09-13T16:30:16;20.53;99.99
71297;SHT31;59082;50.658;4.608;2022-09-13T16:32:42;20.56;99.99
71297;SHT31;59082;50.658;4.608;2022-09-13T16:35:09;20.53;99.99
71297;SHT31;59082;50.658;4.608;2022-09-13T16:37:36;20.47;99.99
71297;SHT31;59082;50.658;4.608;2022-09-13T16:40:02;20.47;99.99
71297;SHT31;59082;50.658;4.608;2022-09-13T16:42:28;20.46;99.99
71297;SHT31;59082;50.658;4.608;2022-09-13T16:44:53;20.40;99.99
71297;SHT31;59082;50.658;4.608;2022-09-13T16:47:19;20.34;99.99
71297;SHT31;59082;50.658;4.608;2022-09-13T16:49:44;20.23;99.99
71297;SHT31;59082;50.658;4.608;2022-09-13T16:52:10;20.15;99.99
71297;SHT31;59082;50.658;4.608;2022-09-13T16:54:35;20.06;99.99
71297;SHT31;59082;50.658;4.608;2022-09-13T16:57:02;20.00;99.99
71297;SHT31;59082;50.658;4.608;2022-09-13T16:59:29;19.92;99.99
71297;SHT31;59082;50.658;4.608;2022-09-13T17:01:55;19.77;99.99
71297;SHT31;59082;50.658;4.608;2022-09-13T17:04:21;19.74;99.99
71297;SHT31;59082;50.658;4.608;2022-09-13T17:06:46;19.62;99.99
71297;SHT31;59082;50.658;4.608;2022-09-13T17:09:12;19.50;99.99
71297;SHT31;59082;50.658;4.608;2022-09-13T17:11:40;19.49;99.99
71297;SHT31;59082;50.658;4.608;2022-09-13T17:14:08;19.46;99.99
71297;SHT31;59082;50.658;4.608;2022-09-13T17:16:43;19.43;99.99
71297;SHT31;59082;50.658;4.608;2022-09-13T17:19:23;19.34;99.99
71297;SHT31;59082;50.658;4.608;2022-09-13T17:21:50;19.34;99.99
71297;SHT31;59082;50.658;4.608;2022-09-13T17:24:19;19.26;99.99
71297;SHT31;59082;50.658;4.608;2022-09-13T17:26:45;19.20;99.99
71297;SHT31;59082;50.658;4.608;2022-09-13T17:29:11;19.19;99.99
71297;SHT31;59082;50.658;4.608;2022-09-13T17:31:37;19.16;99.99
71297;SHT31;59082;50.658;4.608;2022-09-13T17:34:02;19.07;99.99
71297;SHT31;59082;50.658;4.608;2022-09-13T17:36:28;19.09;99.99
71297;SHT31;59082;50.658;4.608;2022-09-13T17:38:55;19.06;99.99
71297;SHT31;59082;50.658;4.608;2022-09-13T17:41:21;18.98;99.99
71297;SHT31;59082;50.658;4.608;2022-09-13T17:43:47;18.99;99.99
71297;SHT31;59082;50.658;4.608;2022-09-13T17:46:15;18.93;99.99
71297;SHT31;59082;50.658;4.608;2022-09-13T17:48:41;18.89;99.99
71297;SHT31;59082;50.658;4.608;2022-09-13T17:51:10;18.86;99.99
71297;SHT31;59082;50.658;4.608;2022-09-13T17:53:41;18.76;99.99
71297;SHT31;59082;50.658;4.608;2022-09-13T17:56:07;18.79;99.99
71297;SHT31;59082;50.658;4.608;2022-09-13T17:58:33;18.75;99.99
71297;SHT31;59082;50.658;4.608;2022-09-13T18:01:05;18.79;99.99
71297;SHT31;59082;50.658;4.608;2022-09-13T18:03:31;18.71;99.99
71297;SHT31;59082;50.658;4.608;2022-09-13T18:05:59;18.75;99.99
71297;SHT31;59082;50.658;4.608;2022-09-13T18:08:26;18.72;99.99
71297;SHT31;59082;50.658;4.608;2022-09-13T18:10:52;18.69;99.99
71297;SHT31;59082;50.658;4.608;2022-09-13T18:13:18;18.55;99.99
71297;SHT31;59082;50.658;4.608;2022-09-13T18:15:45;18.55;99.99
71297;SHT31;59082;50.658;4.608;2022-09-13T18:18:11;18.44;99.99
71297;SHT31;59082;50.658;4.608;2022-09-13T18:20:37;18.40;99.99
71297;SHT31;59082;50.658;4.608;2022-09-13T18:23:03;18.36;99.99
71297;SHT31;59082;50.658;4.608;2022-09-13T18:25:29;18.31;99.99
71297;SHT31;59082;50.658;4.608;2022-09-13T18:27:55;18.28;99.99
71297;SHT31;59082;50.658;4.608;2022-09-13T18:30:21;18.28;99.99
71297;SHT31;59082;50.658;4.608;2022-09-13T18:32:46;18.24;99.99
71297;SHT31;59082;50.658;4.608;2022-09-13T18:35:12;18.23;99.99
71297;SHT31;59082;50.658;4.608;2022-09-13T18:37:38;18.17;99.99
71297;SHT31;59082;50.658;4.608;2022-09-13T18:40:04;18.16;99.99
71297;SHT31;59082;50.658;4.608;2022-09-13T18:42:31;18.13;99.99
71297;SHT31;59082;50.658;4.608;2022-09-13T18:44:57;18.09;99.99
71297;SHT31;59082;50.658;4.608;2022-09-13T18:47:22;18.01;99.99
71297;SHT31;59082;50.658;4.608;2022-09-13T18:49:48;17.99;99.99
71297;SHT31;59082;50.658;4.608;2022-09-13T18:52:13;17.99;99.99
71297;SHT31;59082;50.658;4.608;2022-09-13T18:54:40;18.00;99.99
71297;SHT31;59082;50.658;4.608;2022-09-13T18:57:05;18.04;99.99
71297;SHT31;59082;50.658;4.608;2022-09-13T18:59:30;18.03;99.99
71297;SHT31;59082;50.658;4.608;2022-09-13T19:01:57;18.04;99.99
71297;SHT31;59082;50.658;4.608;2022-09-13T19:04:23;18.01;99.99
71297;SHT31;59082;50.658;4.608;2022-09-13T19:06:53;17.91;99.99
71297;SHT31;59082;50.658;4.608;2022-09-13T19:09:20;17.91;99.99
71297;SHT31;59082;50.658;4.608;2022-09-13T19:11:48;17.83;99.99
71297;SHT31;59082;50.658;4.608;2022-09-13T19:14:22;17.86;99.99
71297;SHT31;59082;50.658;4.608;2022-09-13T19:16:49;17.90;99.99
71297;SHT31;59082;50.658;4.608;2022-09-13T19:19:15;17.91;99.99
71297;SHT31;59082;50.658;4.608;2022-09-13T19:21:41;17.86;99.99
71297;SHT31;59082;50.658;4.608;2022-09-13T19:24:09;17.90;99.99